createdAt,value
2019-03-04T05:12:50.351Z,2.50
2019-03-04T05:13:51.398Z,3.65
2019-03-04T05:14:52.433Z,1.60
2019-03-04T05:15:53.477Z,2.92
2019-03-04T05:16:54.515Z,3.08
2019-03-04T05:17:55.616Z,2.43
2019-03-04T05:58:54.202Z,3.20
2019-03-04T05:59:55.342Z,3.27
2019-03-04T06:01:16.307Z,3.00
2019-03-04T06:02:17.446Z,2.20
2019-03-04T06:03:20.397Z,2.00
2019-03-04T06:04:21.544Z,1.85
2019-03-04T06:05:22.686Z,1.92
2019-03-04T06:06:42.464Z,4.25
2019-03-04T06:07:51.305Z,3.62
2019-03-04T06:08:52.449Z,3.57
2019-03-04T06:09:53.589Z,1.65
2019-03-04T06:10:54.729Z,2.17
2019-03-04T06:11:56.156Z,2.67
2019-03-04T06:12:58.902Z,2.10
2019-03-04T06:14:00.149Z,4.37
2019-03-04T06:15:01.474Z,2.30
2019-03-04T06:16:02.612Z,1.25
2019-03-04T06:17:03.747Z,2.05
2019-03-04T06:18:04.895Z,2.58
2019-03-04T06:19:06.035Z,3.27
2019-03-04T06:20:09.978Z,2.80
2019-03-04T06:21:11.121Z,2.40
2019-03-04T06:22:12.278Z,1.37
2019-03-04T06:23:13.527Z,1.87
2019-03-04T06:24:14.766Z,1.85
2019-03-04T06:25:18.264Z,1.52
2019-03-04T06:26:19.450Z,3.62
2019-03-04T06:27:20.596Z,4.37
2019-03-04T06:28:21.746Z,2.53
2019-03-04T06:29:22.885Z,3.35
2019-03-04T06:30:28.674Z,2.50
2019-03-04T06:31:29.858Z,1.50
2019-03-04T06:32:30.987Z,1.65
2019-03-04T06:33:32.134Z,4.17
2019-03-04T06:34:33.269Z,3.55
2019-03-04T06:35:34.418Z,1.52
2019-03-04T06:36:35.553Z,1.50
2019-03-04T06:37:37.015Z,1.83
2019-03-04T06:38:38.480Z,1.83
2019-03-04T06:39:39.919Z,6.87
2019-03-04T06:40:41.062Z,3.63
2019-03-04T06:41:42.469Z,3.62
2019-03-04T06:42:43.607Z,1.67
2019-03-04T06:43:44.757Z,1.72
2019-03-04T06:44:45.898Z,2.05
2019-03-04T06:45:47.034Z,1.85
2019-03-04T06:46:48.259Z,3.22
2019-03-04T06:47:49.798Z,1.37
2019-03-04T06:48:50.954Z,2.72
2019-03-04T06:49:52.088Z,2.67
2019-03-04T06:50:54.628Z,1.85
2019-03-04T06:51:55.769Z,3.75
2019-03-04T06:52:58.826Z,1.80
2019-03-04T06:54:12.473Z,1.98
2019-03-04T06:55:20.393Z,2.40
2019-03-04T06:56:31.161Z,1.10
2019-03-04T06:57:32.298Z,1.65
2019-03-04T06:58:57.946Z,4.37
2019-03-04T07:00:08.507Z,1.87
2019-03-04T07:01:12.249Z,2.30
2019-03-04T07:02:22.873Z,2.22
2019-03-04T07:03:24.026Z,2.25
2019-03-04T07:04:31.593Z,1.92
2019-03-04T07:05:44.846Z,1.80
2019-03-04T07:06:45.993Z,1.40
2019-03-04T07:07:47.409Z,2.35
2019-03-04T07:08:52.378Z,2.77
2019-03-04T07:09:53.507Z,1.53
2019-03-04T07:10:54.646Z,2.40
2019-03-04T07:11:56.094Z,2.42
2019-03-04T07:12:57.401Z,1.45
2019-03-04T07:13:58.552Z,1.70
2019-03-04T07:14:59.998Z,1.43
2019-03-04T07:16:01.141Z,1.62
2019-03-04T07:17:02.278Z,1.95
2019-03-04T07:18:03.413Z,1.60
2019-03-04T07:19:04.563Z,1.87
2019-03-04T07:20:19.229Z,2.95
2019-03-04T07:21:20.389Z,2.23
2019-03-04T07:22:21.549Z,2.83
2019-03-04T07:23:22.695Z,3.87
2019-03-04T07:24:23.941Z,3.83
2019-03-04T07:25:25.078Z,3.58
2019-03-04T07:26:26.218Z,1.63
2019-03-04T07:27:27.622Z,2.15
2019-03-04T07:28:28.755Z,3.87
2019-03-04T07:29:29.915Z,14.50
2019-03-04T07:33:34.257Z,3.98
2019-03-04T07:34:35.806Z,7.25
2019-03-04T07:35:37.086Z,10.50
2019-03-04T07:36:38.226Z,4.45
2019-03-04T07:37:39.366Z,3.12
2019-03-04T07:38:44.074Z,3.80
2019-03-04T07:39:45.223Z,3.65
2019-03-04T07:40:46.363Z,4.90
2019-03-04T07:41:47.498Z,3.72
2019-03-04T07:42:48.962Z,5.80
2019-03-04T07:43:50.175Z,3.47
2019-03-04T07:44:51.313Z,2.42
2019-03-04T07:45:52.458Z,4.45
2019-03-04T07:46:53.699Z,3.10
2019-03-04T07:47:54.834Z,1.45
2019-03-04T07:48:56.000Z,3.60
2019-03-04T07:49:57.141Z,2.92
2019-03-04T07:51:08.168Z,2.50
2019-03-04T07:52:09.309Z,2.30
2019-03-04T07:53:10.790Z,2.55
2019-03-04T07:54:12.841Z,1.77
2019-03-04T07:55:14.077Z,4.05
2019-03-04T07:56:15.209Z,3.42
2019-03-04T07:57:16.347Z,1.37
2019-03-04T07:58:17.793Z,1.67
2019-03-04T07:59:18.963Z,2.50
2019-03-04T08:00:20.102Z,4.33
2019-03-04T08:01:21.232Z,4.53
2019-03-04T08:02:22.730Z,2.02
2019-03-04T08:03:23.872Z,5.30
2019-03-04T08:04:25.029Z,2.25
2019-03-04T08:05:26.362Z,1.67
2019-03-04T08:06:27.502Z,3.10
2019-03-04T08:07:32.536Z,2.77
2019-03-04T08:08:34.865Z,4.87
2019-03-04T08:09:58.013Z,2.95
2019-03-04T08:11:20.005Z,1.98
2019-03-04T08:12:37.025Z,1.82
2019-03-04T08:13:53.817Z,1.90
2019-03-04T08:14:54.974Z,3.05
2019-03-04T08:15:56.529Z,2.08
2019-03-04T08:16:57.670Z,2.20
2019-03-04T08:17:58.804Z,3.27
2019-03-04T08:19:00.325Z,1.90
2019-03-04T08:20:01.478Z,4.78
2019-03-04T08:21:02.817Z,2.67
2019-03-04T08:22:03.959Z,1.52
2019-03-04T08:23:05.097Z,3.37
2019-03-04T08:24:06.238Z,3.10
2019-03-04T08:25:08.999Z,1.62
2019-03-04T08:26:10.142Z,2.10
2019-03-04T08:27:11.626Z,2.37
2019-03-04T08:28:12.871Z,3.87
2019-03-04T08:29:14.306Z,3.08
2019-03-04T08:30:17.057Z,2.37
2019-03-04T08:31:18.301Z,1.67
2019-03-04T08:32:19.750Z,1.57
2019-03-04T08:33:20.886Z,3.05
2019-03-04T08:34:30.743Z,2.90
2019-03-04T08:35:25.410Z,5.12
2019-03-04T08:36:26.547Z,3.08
2019-03-04T08:37:27.686Z,3.55
2019-03-04T08:38:28.846Z,7.05
2019-03-04T08:39:30.346Z,2.72
2019-03-04T08:40:31.506Z,4.62
2019-03-04T08:41:33.021Z,5.40
2019-03-04T08:42:34.162Z,4.22
2019-03-04T08:43:35.595Z,2.90
2019-03-04T08:44:36.742Z,4.85
2019-03-04T08:45:37.894Z,2.52
2019-03-04T08:46:39.048Z,2.40
2019-03-04T08:47:40.302Z,3.87
2019-03-04T08:48:41.441Z,1.40
2019-03-04T08:49:42.918Z,5.03
2019-03-04T08:50:46.075Z,4.25
2019-03-04T08:51:47.312Z,2.60
2019-03-04T08:52:48.456Z,4.42
2019-03-04T08:53:49.605Z,4.22
2019-03-04T08:54:50.754Z,4.20
2019-03-04T08:55:51.906Z,3.30
2019-03-04T08:56:53.049Z,5.20
2019-03-04T08:57:54.194Z,3.25
2019-03-04T08:58:55.337Z,3.75
2019-03-04T08:59:56.481Z,5.08
2019-03-04T09:00:57.738Z,5.50
2019-03-04T09:01:58.916Z,5.30
2019-03-04T09:03:00.179Z,5.08
2019-03-04T09:04:01.324Z,5.80
2019-03-04T09:05:05.990Z,5.78
2019-03-04T09:06:07.253Z,4.97
2019-03-04T09:07:09.017Z,5.35
2019-03-04T09:08:10.282Z,3.60
2019-03-04T09:09:11.426Z,3.77
2019-03-04T09:10:18.070Z,7.20
2019-03-04T09:12:20.236Z,7.05
2019-03-04T09:13:22.242Z,5.22
2019-03-04T09:16:25.881Z,2.33
2019-03-04T09:17:27.026Z,4.03
2019-03-04T09:18:28.157Z,5.08
2019-03-04T09:19:29.295Z,7.55
2019-03-04T09:20:30.445Z,3.12
2019-03-04T09:21:31.581Z,3.40
2019-03-04T09:22:32.742Z,3.67
2019-03-04T09:23:33.884Z,3.58
2019-03-04T09:24:35.034Z,4.30
2019-03-04T09:25:45.327Z,3.83
2019-03-04T09:26:46.465Z,5.70
2019-03-04T09:27:49.809Z,5.72
2019-03-04T09:28:50.949Z,5.40
2019-03-04T09:29:52.095Z,3.12
2019-03-04T09:30:53.536Z,5.53
2019-03-04T09:31:54.697Z,5.40
2019-03-04T09:41:12.417Z,5.50
2019-03-04T09:42:15.362Z,6.00
2019-03-04T09:43:16.591Z,5.60
2019-03-04T09:44:17.731Z,3.33
2019-03-04T09:45:18.969Z,5.03
2019-03-04T09:46:20.117Z,5.15
2019-03-04T09:47:21.258Z,7.10
2019-03-04T09:48:22.393Z,4.33
2019-03-04T09:49:24.354Z,5.28
2019-03-04T09:50:26.702Z,4.03
2019-03-04T09:51:28.159Z,5.28
2019-03-04T09:52:29.307Z,2.87
2019-03-04T09:53:39.150Z,5.17
2019-03-04T09:54:33.502Z,5.35
2019-03-04T10:00:59.169Z,5.37
2019-03-04T10:02:00.349Z,7.75
2019-03-04T10:03:22.181Z,7.47
2019-03-04T10:07:36.594Z,2.80
2019-03-04T10:10:50.268Z,7.00
2019-03-04T10:11:58.023Z,4.47
2019-03-04T10:13:06.955Z,9.20
2019-03-04T10:14:31.598Z,5.10
2019-03-04T10:15:46.238Z,4.70
2019-03-04T10:16:51.187Z,6.70
2019-03-04T10:18:07.711Z,6.03
2019-03-04T10:19:30.955Z,4.50
2019-03-04T10:20:59.373Z,5.10
2019-03-04T10:22:13.320Z,5.80
2019-03-04T10:23:26.873Z,8.68
2019-03-04T10:24:40.674Z,7.62
2019-03-04T10:25:48.862Z,6.00
2019-03-04T10:26:57.308Z,6.58
2019-03-04T10:28:18.744Z,3.15
2019-03-04T10:29:35.706Z,4.72
2019-03-04T10:30:58.884Z,5.03
2019-03-04T10:32:07.603Z,6.30
2019-03-04T10:33:33.393Z,5.95
2019-03-04T10:37:08.314Z,5.87
2019-03-04T10:38:27.243Z,7.15
2019-03-04T10:39:35.578Z,5.92
2019-03-04T10:40:52.585Z,9.28
2019-03-04T10:42:06.173Z,7.85
2019-03-04T10:43:22.695Z,6.00
2019-03-04T10:44:59.294Z,5.50
2019-03-04T10:46:10.005Z,8.40
2019-03-04T10:47:11.405Z,5.10
2019-03-04T10:48:12.558Z,4.20
2019-03-04T10:49:13.694Z,3.37
2019-03-04T10:50:14.842Z,5.22
2019-03-04T10:51:15.985Z,5.20
2019-03-04T10:52:17.132Z,5.25
2019-03-04T10:53:18.275Z,3.05
2019-03-04T10:54:19.429Z,5.67
2019-03-04T10:55:20.903Z,8.70
2019-03-04T10:56:22.046Z,5.97
2019-03-04T10:57:23.193Z,7.35
2019-03-04T10:58:24.441Z,4.33
2019-03-04T10:59:25.593Z,6.67
2019-03-04T11:00:26.921Z,6.70
2019-03-04T11:01:30.603Z,5.35
2019-03-04T11:02:31.500Z,6.25
2019-03-04T11:03:32.633Z,7.53
2019-03-04T11:04:33.773Z,8.63
2019-03-04T11:05:34.920Z,3.33
2019-03-04T11:06:36.069Z,6.03
2019-03-04T11:07:37.214Z,5.75
2019-03-04T11:08:38.369Z,5.58
2019-03-04T11:09:39.509Z,5.90
2019-03-04T11:10:40.664Z,6.72
2019-03-04T11:11:42.422Z,4.67
2019-03-04T11:12:43.577Z,8.05
2019-03-04T11:13:44.722Z,5.97
2019-03-04T11:14:45.862Z,3.80
2019-03-04T11:15:47.253Z,6.10
2019-03-04T11:16:48.391Z,4.35
2019-03-04T11:17:49.918Z,4.25
2019-03-04T11:18:51.065Z,5.35
2019-03-04T11:19:52.205Z,5.10
2019-03-04T11:20:53.345Z,6.00
2019-03-04T11:21:54.862Z,4.25
2019-03-04T11:22:56.018Z,3.85
2019-03-04T11:23:57.430Z,8.30
2019-03-04T11:24:58.570Z,5.12
2019-03-04T11:26:00.030Z,5.28
2019-03-04T11:27:01.252Z,6.17
2019-03-04T11:28:02.511Z,5.97
2019-03-04T11:29:05.569Z,4.87
2019-03-04T11:30:10.413Z,6.22
2019-03-04T11:31:11.550Z,5.12
2019-03-04T11:32:12.700Z,1.45
2019-03-04T11:33:13.850Z,2.33
2019-03-04T11:34:14.998Z,5.80
2019-03-04T11:35:16.152Z,3.00
2019-03-04T11:36:17.319Z,4.67
2019-03-04T11:37:18.821Z,4.15
2019-03-04T11:39:34.057Z,3.35
2019-03-04T11:40:39.157Z,3.60
2019-03-04T11:41:40.314Z,6.47
2019-03-04T11:42:41.800Z,6.40
2019-03-04T11:43:42.933Z,6.40
2019-03-04T11:44:44.066Z,4.83
2019-03-04T11:45:45.207Z,5.92
2019-03-04T11:46:46.450Z,6.78
2019-03-04T11:47:47.601Z,9.45
2019-03-04T11:48:48.738Z,5.62
2019-03-04T11:49:49.898Z,4.90
2019-03-04T11:50:51.035Z,6.22
2019-03-04T11:51:52.177Z,5.30
2019-03-04T11:52:53.339Z,5.90
2019-03-04T11:53:55.281Z,3.27
2019-03-04T11:54:56.453Z,6.85
2019-03-04T11:55:58.103Z,6.80
2019-03-04T11:56:59.334Z,8.03
2019-03-04T11:58:00.485Z,4.55
2019-03-04T11:59:01.630Z,4.90
2019-03-04T12:00:12.773Z,8.33
2019-03-04T12:01:15.813Z,9.75
2019-03-04T12:02:17.958Z,5.22
2019-03-04T12:03:19.131Z,7.03
2019-03-04T12:04:20.275Z,5.40
2019-03-04T12:05:21.413Z,7.45
2019-03-04T12:06:22.559Z,7.33
2019-03-04T12:07:24.036Z,6.58
2019-03-04T12:08:25.182Z,4.85
2019-03-04T12:09:26.604Z,1.90
2019-03-04T12:10:27.748Z,2.20
2019-03-04T12:11:38.032Z,3.75
2019-03-04T12:12:31.930Z,1.87
2019-03-04T12:13:33.090Z,4.28
2019-03-04T12:14:34.230Z,3.08
2019-03-04T12:15:36.066Z,2.55
2019-03-04T12:16:37.522Z,3.08
2019-03-04T12:17:39.050Z,3.27
2019-03-04T12:18:40.224Z,3.22
2019-03-04T12:19:41.369Z,2.90
2019-03-04T12:20:42.937Z,1.52
2019-03-04T12:21:44.420Z,5.72
2019-03-04T12:22:45.551Z,2.95
2019-03-04T12:23:46.697Z,3.47
2019-03-04T12:24:47.840Z,2.87
2019-03-04T12:25:49.086Z,2.20
2019-03-04T12:26:50.217Z,1.47
2019-03-04T12:27:51.354Z,2.40
2019-03-04T12:28:52.505Z,1.55
2019-03-04T12:29:53.647Z,3.45
2019-03-04T12:30:54.786Z,0.93
2019-03-04T12:32:00.603Z,2.67
2019-03-04T12:33:01.734Z,1.92
2019-03-04T12:34:03.314Z,2.02
2019-03-04T12:35:07.537Z,0.95
2019-03-04T12:36:08.738Z,1.70
2019-03-04T12:37:10.202Z,3.02
2019-03-04T12:38:11.361Z,2.42
2019-03-04T12:39:12.533Z,1.72
2019-03-04T12:40:15.665Z,2.50
2019-03-04T12:41:16.789Z,2.62
2019-03-04T12:42:17.927Z,1.00
2019-03-04T12:43:19.092Z,1.80
2019-03-04T12:44:20.330Z,1.60
2019-03-04T12:45:22.463Z,1.45
2019-03-04T12:46:23.694Z,3.02
2019-03-04T12:47:24.834Z,3.02
2019-03-04T12:48:26.266Z,3.72
2019-03-04T12:49:27.401Z,2.15
2019-03-04T12:50:33.264Z,3.12
2019-03-04T12:51:34.655Z,3.10
2019-03-04T12:52:35.802Z,2.35
2019-03-04T12:53:37.649Z,1.82
2019-03-04T12:54:38.896Z,3.95
2019-03-04T12:55:40.039Z,3.72
2019-03-04T12:56:41.179Z,2.87
2019-03-04T12:57:42.321Z,1.30
2019-03-04T12:58:43.825Z,2.77
2019-03-04T12:59:44.964Z,3.70
2019-03-04T13:00:46.113Z,3.45
2019-03-04T13:01:47.550Z,4.15
2019-03-04T13:02:57.119Z,5.33
2019-03-04T13:04:53.087Z,2.27
2019-03-04T13:10:59.725Z,2.30
2019-03-04T13:12:01.226Z,2.47
2019-03-04T13:13:02.353Z,3.25
2019-03-04T13:14:03.807Z,3.08
2019-03-04T13:15:11.788Z,2.25
2019-03-04T13:16:12.942Z,6.03
2019-03-04T13:17:14.082Z,4.28
2019-03-04T13:18:15.237Z,2.52
2019-03-04T13:19:17.364Z,3.55
2019-03-04T13:20:26.497Z,3.58
2019-03-04T13:21:27.641Z,2.40
2019-03-04T13:22:28.785Z,3.40
2019-03-04T13:23:29.929Z,3.87
2019-03-04T13:24:31.082Z,3.65
2019-03-04T13:25:32.230Z,3.40
2019-03-04T13:26:33.383Z,4.63
2019-03-04T13:27:34.534Z,4.37
2019-03-04T13:28:35.669Z,4.03
2019-03-04T13:29:37.073Z,4.87
2019-03-04T13:30:39.869Z,3.92
2019-03-04T13:31:41.013Z,5.33
2019-03-04T13:32:42.144Z,5.35
2019-03-04T13:33:43.373Z,3.55
2019-03-04T13:34:44.637Z,4.35
2019-03-04T13:35:45.906Z,2.72
2019-03-04T13:36:47.058Z,4.20
2019-03-04T13:37:48.902Z,5.42
2019-03-04T13:38:50.047Z,6.12
2019-03-04T13:39:51.199Z,4.67
2019-03-04T13:40:52.351Z,5.67
2019-03-04T13:41:53.551Z,4.53
2019-03-04T13:42:54.978Z,4.95
2019-03-04T13:43:56.117Z,3.25
2019-03-04T13:44:57.272Z,6.17
2019-03-04T13:45:58.425Z,4.17
2019-03-04T13:46:59.565Z,6.65
2019-03-04T13:48:00.809Z,4.70
2019-03-04T13:49:01.941Z,3.42
2019-03-04T13:50:24.378Z,6.58
2019-03-04T13:51:25.533Z,4.37
2019-03-04T13:52:27.873Z,4.10
2019-03-04T13:53:29.037Z,4.55
2019-03-04T13:54:30.199Z,7.37
2019-03-04T13:55:31.342Z,7.00
2019-03-04T13:56:32.481Z,4.75
2019-03-04T13:57:33.635Z,5.35
2019-03-04T13:58:35.122Z,5.00
2019-03-04T13:59:36.277Z,3.65
2019-03-04T14:00:39.119Z,4.78
2019-03-04T14:01:40.249Z,4.78
2019-03-04T14:02:41.392Z,3.65
2019-03-04T14:03:42.530Z,4.97
2019-03-04T14:04:43.954Z,2.65
2019-03-04T14:05:45.094Z,3.10
2019-03-04T14:06:46.261Z,4.20
2019-03-04T14:07:47.411Z,2.90
2019-03-04T14:08:48.662Z,7.10
2019-03-04T14:09:49.806Z,8.25
2019-03-04T14:10:50.954Z,6.08
2019-03-04T14:11:52.100Z,4.22
2019-03-04T14:12:53.487Z,2.27
2019-03-04T14:13:54.631Z,5.15
2019-03-04T14:14:55.783Z,4.23
2019-03-04T14:15:57.235Z,5.35
2019-03-04T14:16:58.377Z,3.70
2019-03-04T14:17:59.513Z,5.05
2019-03-04T14:19:00.722Z,6.62
2019-03-04T14:20:05.249Z,3.12
2019-03-04T14:21:06.394Z,6.47
2019-03-04T14:22:07.537Z,6.33
2019-03-04T14:23:08.677Z,4.00
2019-03-04T14:24:09.814Z,5.30
2019-03-04T14:25:11.766Z,3.37
2019-03-04T14:26:13.170Z,3.75
2019-03-04T14:27:14.313Z,5.03
2019-03-04T14:28:15.751Z,4.78
2019-03-04T14:29:16.885Z,7.58
2019-03-04T14:30:19.442Z,3.37
2019-03-04T14:31:20.630Z,5.90
2019-03-04T14:32:21.775Z,5.65
2019-03-04T14:33:22.943Z,5.03
2019-03-04T14:34:24.172Z,6.15
2019-03-04T14:35:25.317Z,6.17
2019-03-04T14:36:26.477Z,5.42
2019-03-04T14:37:27.951Z,6.67
2019-03-04T14:38:29.157Z,8.05
2019-03-04T14:39:30.338Z,4.37
2019-03-04T14:40:31.509Z,3.65
2019-03-04T14:41:32.652Z,6.15
2019-03-04T14:42:33.917Z,9.38
2019-03-04T14:43:35.075Z,4.75
2019-03-04T14:44:36.222Z,7.75
2019-03-04T14:45:37.380Z,5.87
2019-03-04T14:46:38.521Z,5.85
2019-03-04T14:47:39.681Z,8.13
2019-03-04T14:48:40.822Z,5.25
2019-03-04T14:49:45.069Z,8.80
2019-03-04T14:50:45.021Z,6.35
2019-03-04T14:51:46.154Z,8.98
2019-03-04T14:52:47.505Z,6.35
2019-03-04T14:53:48.705Z,7.83
2019-03-04T14:54:49.992Z,8.08
2019-03-04T14:55:51.206Z,5.08
2019-03-04T14:56:52.690Z,8.18
2019-03-04T14:57:53.834Z,5.20
2019-03-04T14:59:09.816Z,5.60
2019-03-04T14:59:58.046Z,9.65
2019-03-04T15:00:59.292Z,4.92
2019-03-04T15:02:00.431Z,9.88
2019-03-04T15:03:06.370Z,5.37
2019-03-04T15:04:07.510Z,3.87
2019-03-04T15:05:09.125Z,5.83
2019-03-04T15:06:10.591Z,6.72
2019-03-04T15:07:11.727Z,9.93
2019-03-04T15:08:12.867Z,6.10
2019-03-04T15:09:15.008Z,6.92
2019-03-04T15:10:16.175Z,5.42
2019-03-04T15:11:17.311Z,9.88
2019-03-04T15:12:18.473Z,8.33
2019-03-04T15:13:19.630Z,4.83
2019-03-04T15:14:20.807Z,7.28
2019-03-04T15:15:23.461Z,9.93
2019-03-04T15:16:24.594Z,5.72
2019-03-04T15:17:27.596Z,5.60
2019-03-04T15:18:28.725Z,9.18
2019-03-04T15:19:29.977Z,6.12
2019-03-04T15:20:33.635Z,7.12
2019-03-04T15:21:34.937Z,8.63
2019-03-04T15:22:36.491Z,6.45
2019-03-04T15:23:37.626Z,5.58
2019-03-04T15:24:39.050Z,5.33
2019-03-04T15:25:41.909Z,9.90
2019-03-04T15:26:44.303Z,6.40
2019-03-04T15:27:45.609Z,7.80
2019-03-04T15:28:47.070Z,8.63
2019-03-04T15:29:48.214Z,9.45
2019-03-04T15:30:52.673Z,9.85
2019-03-04T15:31:53.817Z,7.72
2019-03-04T15:32:54.969Z,11.75
2019-03-04T15:33:56.147Z,9.93
2019-03-04T15:34:57.286Z,7.22
2019-03-04T15:35:58.949Z,8.45
2019-03-04T15:37:00.131Z,9.93
2019-03-04T15:38:01.285Z,9.53
2019-03-04T15:39:06.501Z,13.43
2019-03-04T15:40:10.144Z,7.67
2019-03-04T15:41:11.293Z,11.90
2019-03-04T15:42:12.749Z,7.03
2019-03-04T15:43:13.890Z,5.03
2019-03-04T15:44:15.326Z,10.90
2019-03-04T15:45:16.483Z,7.90
2019-03-04T15:46:17.633Z,7.85
2019-03-04T15:47:19.275Z,8.83
2019-03-04T15:48:22.832Z,17.87
2019-03-04T15:49:23.975Z,9.13
2019-03-04T15:50:25.217Z,9.65
2019-03-04T15:51:48.850Z,6.95
2019-03-04T15:52:49.988Z,5.05
2019-03-04T15:53:51.186Z,14.53
2019-03-04T15:54:52.401Z,11.60
2019-03-04T15:55:53.813Z,9.25
2019-03-04T15:56:58.763Z,8.95
2019-03-04T15:57:59.949Z,14.03
2019-03-04T15:59:01.079Z,8.40
2019-03-04T16:00:13.622Z,9.38
2019-03-04T16:01:14.784Z,7.03
2019-03-04T16:02:16.018Z,9.38
2019-03-04T16:03:17.858Z,10.48
2019-03-04T16:04:18.993Z,7.87
2019-03-04T16:05:20.134Z,9.75
2019-03-04T16:06:21.293Z,9.55
2019-03-04T16:07:22.486Z,15.03
2019-03-04T16:08:23.688Z,9.85
2019-03-04T16:09:24.959Z,10.68
2019-03-04T16:10:29.565Z,9.65
2019-03-04T16:11:30.729Z,8.65
2019-03-04T16:12:32.165Z,7.65
2019-03-04T16:13:33.719Z,10.53
2019-03-04T16:14:34.953Z,9.93
2019-03-04T16:15:39.130Z,10.45
2019-03-04T16:16:43.205Z,11.90
2019-03-04T16:17:44.371Z,13.40
2019-03-04T16:18:45.523Z,7.72
2019-03-04T16:19:46.678Z,17.00
2019-03-04T16:20:47.889Z,13.38
2019-03-04T16:21:49.109Z,13.20
2019-03-04T16:22:51.374Z,12.85
2019-03-04T16:23:52.615Z,7.92
2019-03-04T16:24:53.820Z,12.00
2019-03-04T16:25:54.977Z,11.35
2019-03-04T16:26:56.117Z,13.28
2019-03-04T16:28:03.548Z,8.98
2019-03-04T16:29:04.817Z,10.50
2019-03-04T16:30:09.630Z,9.83
2019-03-04T16:31:12.792Z,12.47
2019-03-04T16:32:13.953Z,11.43
2019-03-04T16:33:17.073Z,10.48
2019-03-04T16:34:18.270Z,9.23
2019-03-04T16:35:19.415Z,10.35
2019-03-04T16:36:20.617Z,13.55
2019-03-04T16:37:21.758Z,11.57
2019-03-04T16:38:22.905Z,7.90
2019-03-04T16:39:24.066Z,9.70
2019-03-04T16:40:25.350Z,13.25
2019-03-04T16:41:26.493Z,12.10
2019-03-04T16:42:27.629Z,11.22
2019-03-04T16:43:28.799Z,11.53
2019-03-04T16:44:29.937Z,11.65
2019-03-04T16:45:31.217Z,10.68
2019-03-04T16:46:32.362Z,14.23
2019-03-04T16:47:33.542Z,9.45
2019-03-04T16:48:34.725Z,15.65
2019-03-04T16:49:35.958Z,10.05
2019-03-04T16:50:44.819Z,17.98
2019-03-04T16:51:45.975Z,10.60
2019-03-04T16:52:50.638Z,17.20
2019-03-04T16:53:51.774Z,10.50
2019-03-04T16:54:52.926Z,9.20
2019-03-04T16:55:54.073Z,13.58
2019-03-04T16:56:55.631Z,10.45
2019-03-04T16:57:56.776Z,8.80
2019-03-04T16:58:57.913Z,12.73
2019-03-04T16:59:59.061Z,9.08
2019-03-04T17:01:00.201Z,14.15
2019-03-04T17:02:01.750Z,8.95
2019-03-04T17:03:02.990Z,13.43
2019-03-04T17:04:04.492Z,9.95
2019-03-04T17:05:08.734Z,12.10
2019-03-04T17:06:11.703Z,8.20
2019-03-04T17:07:12.837Z,9.65
2019-03-04T17:08:14.447Z,10.50
2019-03-04T17:09:16.655Z,12.35
2019-03-04T17:10:24.691Z,12.37
2019-03-04T17:11:25.835Z,10.25
2019-03-04T17:12:27.009Z,10.93
2019-03-04T17:13:28.222Z,11.60
2019-03-04T17:14:29.641Z,8.78
2019-03-04T17:15:31.304Z,11.63
2019-03-04T17:16:32.827Z,12.30
2019-03-04T17:17:33.961Z,7.28
2019-03-04T17:18:35.101Z,8.43
2019-03-04T17:19:36.262Z,15.98
2019-03-04T17:20:37.665Z,8.58
2019-03-04T17:21:38.830Z,10.93
2019-03-04T17:22:40.067Z,11.30
2019-03-04T17:23:41.304Z,10.93
2019-03-04T17:24:42.460Z,8.90
2019-03-04T17:25:43.686Z,11.43
2019-03-04T17:26:44.837Z,14.70
2019-03-04T17:27:46.835Z,14.15
2019-03-04T17:28:47.999Z,13.95
2019-03-04T17:29:49.138Z,14.13
2019-03-04T17:30:50.285Z,11.97
2019-03-04T17:31:51.938Z,12.93
2019-03-04T17:32:53.747Z,10.28
2019-03-04T17:33:54.885Z,10.30
2019-03-04T17:34:56.019Z,10.18
2019-03-04T17:35:57.193Z,12.68
2019-03-04T17:36:58.341Z,15.85
2019-03-04T17:37:59.697Z,11.00
2019-03-04T17:39:00.841Z,15.00
2019-03-04T17:40:02.478Z,14.15
2019-03-04T17:41:03.617Z,15.03
2019-03-04T17:42:04.769Z,14.90
2019-03-04T17:43:06.176Z,14.10
2019-03-04T17:44:07.319Z,21.30
2019-03-04T17:45:11.254Z,20.30
2019-03-04T17:46:12.702Z,9.70
2019-03-04T17:47:14.123Z,11.33
2019-03-04T17:48:15.253Z,14.23
2019-03-04T17:49:16.405Z,7.90
2019-03-04T17:50:37.970Z,19.40
2019-03-04T17:51:39.121Z,12.47
2019-03-04T17:52:40.365Z,11.18
2019-03-04T17:53:41.525Z,12.93
2019-03-04T17:54:42.668Z,8.90
2019-03-04T17:55:44.301Z,18.95
2019-03-04T17:56:45.450Z,14.40
2019-03-04T17:57:46.593Z,10.43
2019-03-04T17:58:47.742Z,11.85
2019-03-04T17:59:48.887Z,14.80
2019-03-04T18:00:52.024Z,13.53
2019-03-04T18:01:53.208Z,15.70
2019-03-04T18:02:54.388Z,12.15
2019-03-04T18:03:55.710Z,11.57
2019-03-04T18:04:56.842Z,9.30
2019-03-04T18:05:58.017Z,12.15
2019-03-04T18:06:59.170Z,11.85
2019-03-04T18:08:00.677Z,14.70
2019-03-04T18:09:01.822Z,8.03
2019-03-04T18:10:06.284Z,8.65
2019-03-04T18:11:07.525Z,17.23
2019-03-04T18:12:08.934Z,11.18
2019-03-04T18:13:14.469Z,11.12
2019-03-04T18:14:15.629Z,11.30
2019-03-04T18:15:24.732Z,11.88
2019-03-04T18:16:26.170Z,9.90
2019-03-04T18:17:27.457Z,10.90
2019-03-04T18:18:28.589Z,14.95
2019-03-04T18:19:29.770Z,14.65
2019-03-04T18:20:34.329Z,11.00
2019-03-04T18:21:34.044Z,11.93
2019-03-04T18:22:35.306Z,12.90
2019-03-04T18:23:36.990Z,13.10
2019-03-04T18:24:38.404Z,9.58
2019-03-04T18:26:18.156Z,10.03
2019-03-04T18:27:19.302Z,11.20
2019-03-04T18:28:29.608Z,25.97
2019-03-04T18:29:46.317Z,25.05
2019-03-04T18:31:03.061Z,11.20
2019-03-04T18:32:35.001Z,24.60
2019-03-04T18:34:04.293Z,13.55
2019-03-04T18:35:24.073Z,10.78
2019-03-04T18:36:34.601Z,10.70
2019-03-04T18:37:55.074Z,11.40
2019-03-04T18:39:26.931Z,10.03
2019-03-04T18:40:47.217Z,9.03
2019-03-04T18:42:15.102Z,10.65
2019-03-04T18:43:40.283Z,12.95
2019-03-04T18:44:45.228Z,11.55
2019-03-04T18:45:59.378Z,9.55
2019-03-04T18:47:15.900Z,10.48
2019-03-04T18:48:56.022Z,13.68
2019-03-04T18:49:57.202Z,26.50
2019-03-04T18:50:58.351Z,42.43
2019-03-04T18:51:59.483Z,16.07
2019-03-04T18:53:00.629Z,17.60
2019-03-04T18:54:04.207Z,26.20
2019-03-04T18:55:07.474Z,21.57
2019-03-04T18:56:08.714Z,10.15
2019-03-04T18:57:09.925Z,36.53
2019-03-04T18:58:11.077Z,9.70
2019-03-04T18:59:12.222Z,18.67
2019-03-04T19:00:16.963Z,13.38
2019-03-04T19:01:18.100Z,13.40
2019-03-04T19:02:19.241Z,11.25
2019-03-04T19:03:20.408Z,15.43
2019-03-04T19:04:22.865Z,10.10
2019-03-04T19:05:24.265Z,23.10
2019-03-04T19:06:25.396Z,12.68
2019-03-04T19:07:26.570Z,13.50
2019-03-04T19:08:27.718Z,14.65
2019-03-04T19:09:28.873Z,8.50
2019-03-04T19:10:30.011Z,14.53
2019-03-04T19:11:31.177Z,10.78
2019-03-04T19:12:32.322Z,7.70
2019-03-04T19:13:33.475Z,10.13
2019-03-04T19:14:34.618Z,11.18
2019-03-04T19:15:35.757Z,25.27
2019-03-04T19:16:36.897Z,11.95
2019-03-04T19:17:38.034Z,16.20
2019-03-04T19:18:39.385Z,9.35
2019-03-04T19:19:40.517Z,19.20
2019-03-04T19:20:42.054Z,36.73
2019-03-04T19:21:43.193Z,6.62
2019-03-04T19:22:44.613Z,14.75
2019-03-04T19:23:45.772Z,12.03
2019-03-04T19:24:46.909Z,9.75
2019-03-04T19:25:48.042Z,15.23
2019-03-04T19:26:49.182Z,18.10
2019-03-04T19:27:50.309Z,20.85
2019-03-04T19:28:51.459Z,19.42
2019-03-04T19:29:52.901Z,14.45
2019-03-04T19:30:54.043Z,68.92
2019-03-04T19:31:55.184Z,20.82
2019-03-04T19:32:56.324Z,35.48
2019-03-04T19:33:57.475Z,19.42
2019-03-04T19:34:58.629Z,34.25
2019-03-04T19:35:59.787Z,62.35
2019-03-04T19:37:00.918Z,24.35
2019-03-04T19:38:02.103Z,57.67
2019-03-04T19:39:05.257Z,24.27
2019-03-04T19:40:09.819Z,10.80
2019-03-04T19:41:10.985Z,13.38
2019-03-04T19:42:12.127Z,11.10
2019-03-04T19:43:13.765Z,16.57
2019-03-04T19:44:14.914Z,9.30
2019-03-04T19:45:19.732Z,8.53
2019-03-04T19:46:20.870Z,4.72
2019-03-04T19:47:22.007Z,10.88
2019-03-04T19:48:25.359Z,17.45
2019-03-04T19:49:26.389Z,13.65
2019-03-04T19:50:27.531Z,9.55
2019-03-04T19:51:28.663Z,9.95
2019-03-04T19:52:29.800Z,11.12
2019-03-04T19:53:31.197Z,11.65
2019-03-04T19:54:32.337Z,12.10
2019-03-04T19:55:33.478Z,13.62
2019-03-04T19:56:34.881Z,8.28
2019-03-04T19:57:36.321Z,17.17
2019-03-04T19:58:37.484Z,9.43
2019-03-04T19:59:38.757Z,9.20
2019-03-04T20:00:40.005Z,7.00
2019-03-04T20:01:41.150Z,10.60
2019-03-04T20:02:42.281Z,10.18
2019-03-04T20:03:43.465Z,14.75
2019-03-04T20:04:44.601Z,9.90
2019-03-04T20:05:45.807Z,9.83
2019-03-04T20:06:46.951Z,8.83
2019-03-04T20:07:48.089Z,12.37
2019-03-04T20:08:49.242Z,10.20
2019-03-04T20:09:50.380Z,13.68
2019-03-04T20:10:51.517Z,12.28
2019-03-04T20:11:52.650Z,10.93
2019-03-04T20:12:53.787Z,9.88
2019-03-04T20:13:55.034Z,10.68
2019-03-04T20:14:56.178Z,13.08
2019-03-04T20:15:57.318Z,11.38
2019-03-04T20:16:58.566Z,10.50